sensor_id;sensor_type;location;lat;lon;timestamp;P1;durP1;ratioP1;P2;durP2;ratioP2
44578;SDS011;37422;51.402;0.016;2022-07-22T00:01:46;8.63;;;2.42;;
44578;SDS011;37422;51.402;0.016;2022-07-22T00:04:14;6.80;;;2.10;;
44578;SDS011;37422;51.402;0.016;2022-07-22T00:06:47;10.27;;;2.05;;
44578;SDS011;37422;51.402;0.016;2022-07-22T00:09:18;14.23;;;2.90;;
44578;SDS011;37422;51.402;0.016;2022-07-22T00:11:46;18.15;;;2.50;;
44578;SDS011;37422;51.402;0.016;2022-07-22T00:14:14;11.38;;;2.70;;
44578;SDS011;37422;51.402;0.016;2022-07-22T00:16:42;12.55;;;3.30;;
44578;SDS011;37422;51.402;0.016;2022-07-22T00:19:11;14.45;;;2.42;;
44578;SDS011;37422;51.402;0.016;2022-07-22T00:21:38;11.15;;;4.00;;
44578;SDS011;37422;51.402;0.016;2022-07-22T00:24:06;9.13;;;2.15;;
44578;SDS011;37422;51.402;0.016;2022-07-22T00:26:37;8.98;;;2.35;;
44578;SDS011;37422;51.402;0.016;2022-07-22T00:29:07;10.37;;;2.23;;
44578;SDS011;37422;51.402;0.016;2022-07-22T00:31:35;13.30;;;2.88;;
44578;SDS011;37422;51.402;0.016;2022-07-22T00:34:03;10.70;;;2.30;;
44578;SDS011;37422;51.402;0.016;2022-07-22T00:36:31;15.07;;;2.65;;
44578;SDS011;37422;51.402;0.016;2022-07-22T00:39:03;10.80;;;2.20;;
44578;SDS011;37422;51.402;0.016;2022-07-22T00:41:31;13.40;;;2.50;;
44578;SDS011;37422;51.402;0.016;2022-07-22T00:44:05;10.13;;;2.08;;
44578;SDS011;37422;51.402;0.016;2022-07-22T00:46:35;13.40;;;2.90;;
44578;SDS011;37422;51.402;0.016;2022-07-22T00:49:04;7.35;;;3.08;;
44578;SDS011;37422;51.402;0.016;2022-07-22T00:51:34;13.38;;;3.30;;
44578;SDS011;37422;51.402;0.016;2022-07-22T00:54:04;11.23;;;3.00;;
44578;SDS011;37422;51.402;0.016;2022-07-22T00:59:16;11.88;;;2.60;;
44578;SDS011;37422;51.402;0.016;2022-07-22T01:01:47;16.13;;;3.28;;
44578;SDS011;37422;51.402;0.016;2022-07-22T01:04:24;15.55;;;3.00;;
44578;SDS011;37422;51.402;0.016;2022-07-22T01:07:00;11.85;;;3.00;;
44578;SDS011;37422;51.402;0.016;2022-07-22T01:09:29;10.60;;;2.42;;
44578;SDS011;37422;51.402;0.016;2022-07-22T01:11:58;6.93;;;2.35;;
44578;SDS011;37422;51.402;0.016;2022-07-22T01:14:26;10.27;;;2.42;;
44578;SDS011;37422;51.402;0.016;2022-07-22T01:16:54;10.02;;;2.53;;
44578;SDS011;37422;51.402;0.016;2022-07-22T01:19:22;13.68;;;2.28;;
44578;SDS011;37422;51.402;0.016;2022-07-22T01:21:50;6.60;;;2.55;;
44578;SDS011;37422;51.402;0.016;2022-07-22T01:24:25;7.63;;;2.30;;
44578;SDS011;37422;51.402;0.016;2022-07-22T01:26:55;11.95;;;2.35;;
44578;SDS011;37422;51.402;0.016;2022-07-22T01:29:30;8.52;;;2.80;;
44578;SDS011;37422;51.402;0.016;2022-07-22T01:31:59;10.55;;;2.70;;
44578;SDS011;37422;51.402;0.016;2022-07-22T01:34:28;12.65;;;2.60;;
44578;SDS011;37422;51.402;0.016;2022-07-22T01:36:57;13.52;;;3.05;;
44578;SDS011;37422;51.402;0.016;2022-07-22T01:39:26;11.25;;;3.08;;
44578;SDS011;37422;51.402;0.016;2022-07-22T01:41:54;5.88;;;1.75;;
44578;SDS011;37422;51.402;0.016;2022-07-22T01:44:30;9.88;;;2.80;;
44578;SDS011;37422;51.402;0.016;2022-07-22T01:46:58;12.93;;;3.05;;
44578;SDS011;37422;51.402;0.016;2022-07-22T01:49:27;10.30;;;2.10;;
44578;SDS011;37422;51.402;0.016;2022-07-22T01:52:01;13.75;;;2.63;;
44578;SDS011;37422;51.402;0.016;2022-07-22T01:54:34;12.15;;;2.33;;
44578;SDS011;37422;51.402;0.016;2022-07-22T01:57:02;9.60;;;2.20;;
44578;SDS011;37422;51.402;0.016;2022-07-22T01:59:30;13.05;;;2.58;;
44578;SDS011;37422;51.402;0.016;2022-07-22T02:02:01;12.00;;;2.20;;
44578;SDS011;37422;51.402;0.016;2022-07-22T02:04:35;12.98;;;2.65;;
44578;SDS011;37422;51.402;0.016;2022-07-22T02:07:03;8.77;;;2.40;;
44578;SDS011;37422;51.402;0.016;2022-07-22T02:09:59;12.25;;;2.50;;
44578;SDS011;37422;51.402;0.016;2022-07-22T02:12:32;10.60;;;2.25;;
44578;SDS011;37422;51.402;0.016;2022-07-22T02:15:02;10.00;;;2.83;;
44578;SDS011;37422;51.402;0.016;2022-07-22T02:17:35;10.98;;;2.42;;
44578;SDS011;37422;51.402;0.016;2022-07-22T02:20:04;11.82;;;2.45;;
44578;SDS011;37422;51.402;0.016;2022-07-22T02:22:32;12.98;;;3.83;;
44578;SDS011;37422;51.402;0.016;2022-07-22T02:25:01;10.10;;;3.58;;
44578;SDS011;37422;51.402;0.016;2022-07-22T02:27:32;10.70;;;2.20;;
44578;SDS011;37422;51.402;0.016;2022-07-22T02:32:32;9.75;;;3.58;;
44578;SDS011;37422;51.402;0.016;2022-07-22T02:35:00;8.02;;;2.35;;
44578;SDS011;37422;51.402;0.016;2022-07-22T02:37:32;8.25;;;2.17;;
44578;SDS011;37422;51.402;0.016;2022-07-22T02:40:00;12.30;;;2.42;;
44578;SDS011;37422;51.402;0.016;2022-07-22T02:42:33;9.25;;;2.33;;
44578;SDS011;37422;51.402;0.016;2022-07-22T02:45:02;9.50;;;2.30;;
44578;SDS011;37422;51.402;0.016;2022-07-22T02:47:31;8.32;;;2.35;;
44578;SDS011;37422;51.402;0.016;2022-07-22T02:49:59;10.35;;;2.28;;
44578;SDS011;37422;51.402;0.016;2022-07-22T02:52:30;9.25;;;1.98;;
44578;SDS011;37422;51.402;0.016;2022-07-22T02:54:58;10.55;;;2.50;;
44578;SDS011;37422;51.402;0.016;2022-07-22T02:57:27;13.27;;;3.40;;
44578;SDS011;37422;51.402;0.016;2022-07-22T02:59:55;12.68;;;2.47;;
44578;SDS011;37422;51.402;0.016;2022-07-22T03:02:26;10.80;;;2.28;;
44578;SDS011;37422;51.402;0.016;2022-07-22T03:04:55;7.03;;;2.65;;
44578;SDS011;37422;51.402;0.016;2022-07-22T03:07:26;11.70;;;3.80;;
44578;SDS011;37422;51.402;0.016;2022-07-22T03:09:58;13.65;;;2.97;;
44578;SDS011;37422;51.402;0.016;2022-07-22T03:12:32;7.93;;;2.35;;
44578;SDS011;37422;51.402;0.016;2022-07-22T03:15:06;10.02;;;2.75;;
44578;SDS011;37422;51.402;0.016;2022-07-22T03:17:36;12.05;;;2.55;;
44578;SDS011;37422;51.402;0.016;2022-07-22T03:20:10;10.85;;;2.67;;
44578;SDS011;37422;51.402;0.016;2022-07-22T03:22:40;12.60;;;3.40;;
44578;SDS011;37422;51.402;0.016;2022-07-22T03:25:10;12.18;;;3.20;;
44578;SDS011;37422;51.402;0.016;2022-07-22T03:27:40;11.25;;;3.53;;
44578;SDS011;37422;51.402;0.016;2022-07-22T03:30:08;12.73;;;3.83;;
44578;SDS011;37422;51.402;0.016;2022-07-22T03:32:42;8.35;;;2.70;;
44578;SDS011;37422;51.402;0.016;2022-07-22T03:35:18;12.30;;;3.70;;
44578;SDS011;37422;51.402;0.016;2022-07-22T03:38:08;9.27;;;2.97;;
44578;SDS011;37422;51.402;0.016;2022-07-22T03:40:37;15.23;;;2.95;;
44578;SDS011;37422;51.402;0.016;2022-07-22T03:43:05;8.82;;;3.45;;
44578;SDS011;37422;51.402;0.016;2022-07-22T03:45:33;11.50;;;2.30;;
44578;SDS011;37422;51.402;0.016;2022-07-22T03:48:01;11.98;;;2.38;;
44578;SDS011;37422;51.402;0.016;2022-07-22T03:50:35;4.57;;;2.05;;
44578;SDS011;37422;51.402;0.016;2022-07-22T03:53:08;9.10;;;2.60;;
44578;SDS011;37422;51.402;0.016;2022-07-22T03:55:42;8.35;;;2.55;;
44578;SDS011;37422;51.402;0.016;2022-07-22T03:58:10;11.43;;;4.25;;
44578;SDS011;37422;51.402;0.016;2022-07-22T04:03:12;11.38;;;2.97;;
44578;SDS011;37422;51.402;0.016;2022-07-22T04:05:51;9.88;;;2.30;;
44578;SDS011;37422;51.402;0.016;2022-07-22T04:08:39;9.35;;;2.70;;
44578;SDS011;37422;51.402;0.016;2022-07-22T04:11:10;10.15;;;2.30;;
44578;SDS011;37422;51.402;0.016;2022-07-22T04:13:39;11.60;;;2.50;;
44578;SDS011;37422;51.402;0.016;2022-07-22T04:16:11;7.80;;;2.40;;
44578;SDS011;37422;51.402;0.016;2022-07-22T04:18:47;14.63;;;3.28;;
44578;SDS011;37422;51.402;0.016;2022-07-22T04:21:23;11.30;;;2.35;;
44578;SDS011;37422;51.402;0.016;2022-07-22T04:23:59;15.77;;;3.30;;
44578;SDS011;37422;51.402;0.016;2022-07-22T04:26:30;11.60;;;2.25;;
44578;SDS011;37422;51.402;0.016;2022-07-22T04:29:02;9.77;;;3.47;;
44578;SDS011;37422;51.402;0.016;2022-07-22T04:31:30;7.78;;;2.03;;
44578;SDS011;37422;51.402;0.016;2022-07-22T04:34:04;7.97;;;3.38;;
44578;SDS011;37422;51.402;0.016;2022-07-22T04:36:32;8.07;;;2.33;;
44578;SDS011;37422;51.402;0.016;2022-07-22T04:39:04;8.15;;;2.45;;
44578;SDS011;37422;51.402;0.016;2022-07-22T04:41:34;7.32;;;2.67;;
44578;SDS011;37422;51.402;0.016;2022-07-22T04:44:05;11.63;;;2.50;;
44578;SDS011;37422;51.402;0.016;2022-07-22T04:46:36;8.05;;;2.38;;
44578;SDS011;37422;51.402;0.016;2022-07-22T04:49:05;11.77;;;2.63;;
44578;SDS011;37422;51.402;0.016;2022-07-22T04:51:34;9.93;;;2.30;;
44578;SDS011;37422;51.402;0.016;2022-07-22T04:54:05;14.00;;;3.42;;
44578;SDS011;37422;51.402;0.016;2022-07-22T04:56:38;10.13;;;2.25;;
44578;SDS011;37422;51.402;0.016;2022-07-22T04:59:10;9.85;;;2.45;;
44578;SDS011;37422;51.402;0.016;2022-07-22T05:01:41;13.55;;;2.83;;
44578;SDS011;37422;51.402;0.016;2022-07-22T05:04:11;14.80;;;2.58;;
44578;SDS011;37422;51.402;0.016;2022-07-22T05:06:42;6.88;;;2.42;;
44578;SDS011;37422;51.402;0.016;2022-07-22T05:09:14;13.20;;;2.50;;
44578;SDS011;37422;51.402;0.016;2022-07-22T05:11:42;15.45;;;2.85;;
44578;SDS011;37422;51.402;0.016;2022-07-22T05:14:11;9.38;;;3.15;;
44578;SDS011;37422;51.402;0.016;2022-07-22T05:16:39;8.82;;;2.30;;
44578;SDS011;37422;51.402;0.016;2022-07-22T05:19:12;12.60;;;2.70;;
44578;SDS011;37422;51.402;0.016;2022-07-22T05:21:40;16.83;;;4.80;;
44578;SDS011;37422;51.402;0.016;2022-07-22T05:24:12;5.38;;;2.35;;
44578;SDS011;37422;51.402;0.016;2022-07-22T05:26:41;11.10;;;2.75;;
44578;SDS011;37422;51.402;0.016;2022-07-22T05:29:22;9.45;;;2.30;;
44578;SDS011;37422;51.402;0.016;2022-07-22T05:31:56;10.65;;;2.58;;
44578;SDS011;37422;51.402;0.016;2022-07-22T05:34:25;7.90;;;1.95;;
44578;SDS011;37422;51.402;0.016;2022-07-22T05:36:56;9.23;;;2.50;;
44578;SDS011;37422;51.402;0.016;2022-07-22T05:39:26;12.98;;;2.67;;
44578;SDS011;37422;51.402;0.016;2022-07-22T05:41:54;16.20;;;4.07;;
44578;SDS011;37422;51.402;0.016;2022-07-22T05:44:23;13.48;;;4.43;;
44578;SDS011;37422;51.402;0.016;2022-07-22T05:46:52;10.25;;;3.40;;
44578;SDS011;37422;51.402;0.016;2022-07-22T05:49:21;11.45;;;4.57;;
44578;SDS011;37422;51.402;0.016;2022-07-22T05:51:57;12.40;;;4.63;;
44578;SDS011;37422;51.402;0.016;2022-07-22T05:54:32;17.05;;;6.97;;
44578;SDS011;37422;51.402;0.016;2022-07-22T05:57:00;14.85;;;6.70;;
44578;SDS011;37422;51.402;0.016;2022-07-22T05:59:34;20.75;;;6.30;;
44578;SDS011;37422;51.402;0.016;2022-07-22T06:02:03;17.40;;;6.57;;
44578;SDS011;37422;51.402;0.016;2022-07-22T06:04:43;14.48;;;5.30;;
44578;SDS011;37422;51.402;0.016;2022-07-22T06:07:38;18.02;;;6.93;;
44578;SDS011;37422;51.402;0.016;2022-07-22T06:10:11;17.48;;;6.68;;
44578;SDS011;37422;51.402;0.016;2022-07-22T06:12:40;23.42;;;7.40;;
44578;SDS011;37422;51.402;0.016;2022-07-22T06:17:44;19.38;;;5.07;;
44578;SDS011;37422;51.402;0.016;2022-07-22T06:20:16;18.65;;;4.68;;
44578;SDS011;37422;51.402;0.016;2022-07-22T06:22:45;13.68;;;4.22;;
44578;SDS011;37422;51.402;0.016;2022-07-22T06:25:13;12.98;;;4.50;;
44578;SDS011;37422;51.402;0.016;2022-07-22T06:28:04;9.48;;;3.85;;
44578;SDS011;37422;51.402;0.016;2022-07-22T06:30:38;14.13;;;4.05;;
44578;SDS011;37422;51.402;0.016;2022-07-22T06:33:10;12.93;;;3.92;;
44578;SDS011;37422;51.402;0.016;2022-07-22T06:38:11;9.18;;;2.97;;
44578;SDS011;37422;51.402;0.016;2022-07-22T06:41:22;9.20;;;2.75;;
44578;SDS011;37422;51.402;0.016;2022-07-22T06:44:02;8.50;;;2.58;;
44578;SDS011;37422;51.402;0.016;2022-07-22T06:46:50;11.93;;;3.72;;
44578;SDS011;37422;51.402;0.016;2022-07-22T06:49:20;8.45;;;2.28;;
44578;SDS011;37422;51.402;0.016;2022-07-22T06:51:51;9.23;;;2.78;;
44578;SDS011;37422;51.402;0.016;2022-07-22T06:54:28;7.90;;;2.28;;
44578;SDS011;37422;51.402;0.016;2022-07-22T06:57:07;7.30;;;2.72;;
44578;SDS011;37422;51.402;0.016;2022-07-22T06:59:35;9.88;;;2.15;;
44578;SDS011;37422;51.402;0.016;2022-07-22T07:02:09;10.20;;;2.28;;
44578;SDS011;37422;51.402;0.016;2022-07-22T07:04:40;4.88;;;2.10;;
44578;SDS011;37422;51.402;0.016;2022-07-22T07:07:09;11.10;;;3.15;;
44578;SDS011;37422;51.402;0.016;2022-07-22T07:09:55;12.15;;;3.17;;
44578;SDS011;37422;51.402;0.016;2022-07-22T07:12:44;7.07;;;2.35;;
44578;SDS011;37422;51.402;0.016;2022-07-22T07:15:21;8.43;;;2.40;;
44578;SDS011;37422;51.402;0.016;2022-07-22T07:18:00;3.30;;;1.97;;
44578;SDS011;37422;51.402;0.016;2022-07-22T07:20:31;10.10;;;2.58;;
44578;SDS011;37422;51.402;0.016;2022-07-22T07:23:00;7.72;;;2.30;;
44578;SDS011;37422;51.402;0.016;2022-07-22T07:25:40;9.50;;;1.95;;
44578;SDS011;37422;51.402;0.016;2022-07-22T07:28:11;8.25;;;2.40;;
44578;SDS011;37422;51.402;0.016;2022-07-22T07:30:53;7.80;;;2.00;;
44578;SDS011;37422;51.402;0.016;2022-07-22T07:33:29;8.98;;;2.53;;
44578;SDS011;37422;51.402;0.016;2022-07-22T07:35:57;7.63;;;2.10;;
44578;SDS011;37422;51.402;0.016;2022-07-22T07:38:44;10.15;;;2.45;;
44578;SDS011;37422;51.402;0.016;2022-07-22T07:41:16;10.40;;;2.58;;
44578;SDS011;37422;51.402;0.016;2022-07-22T07:43:49;7.20;;;2.20;;
44578;SDS011;37422;51.402;0.016;2022-07-22T07:46:20;8.20;;;2.60;;
44578;SDS011;37422;51.402;0.016;2022-07-22T07:48:51;5.88;;;2.00;;
44578;SDS011;37422;51.402;0.016;2022-07-22T07:51:21;8.60;;;2.00;;
44578;SDS011;37422;51.402;0.016;2022-07-22T07:53:50;9.02;;;2.20;;
44578;SDS011;37422;51.402;0.016;2022-07-22T07:56:25;9.50;;;1.98;;
44578;SDS011;37422;51.402;0.016;2022-07-22T07:58:59;4.78;;;1.70;;
44578;SDS011;37422;51.402;0.016;2022-07-22T08:01:47;7.85;;;2.22;;
44578;SDS011;37422;51.402;0.016;2022-07-22T08:04:27;8.52;;;1.67;;
44578;SDS011;37422;51.402;0.016;2022-07-22T08:07:16;8.93;;;2.40;;
44578;SDS011;37422;51.402;0.016;2022-07-22T08:09:45;13.18;;;2.33;;
44578;SDS011;37422;51.402;0.016;2022-07-22T08:12:32;3.58;;;1.65;;
44578;SDS011;37422;51.402;0.016;2022-07-22T08:15:21;2.45;;;1.45;;
44578;SDS011;37422;51.402;0.016;2022-07-22T08:17:57;4.70;;;1.90;;
44578;SDS011;37422;51.402;0.016;2022-07-22T08:20:28;6.75;;;2.13;;
44578;SDS011;37422;51.402;0.016;2022-07-22T08:22:59;6.32;;;2.05;;
44578;SDS011;37422;51.402;0.016;2022-07-22T08:25:30;10.70;;;2.67;;
44578;SDS011;37422;51.402;0.016;2022-07-22T08:28:01;6.72;;;1.88;;
44578;SDS011;37422;51.402;0.016;2022-07-22T08:30:28;9.10;;;2.92;;
44578;SDS011;37422;51.402;0.016;2022-07-22T08:33:00;8.40;;;2.00;;
44578;SDS011;37422;51.402;0.016;2022-07-22T08:35:28;8.32;;;1.95;;
44578;SDS011;37422;51.402;0.016;2022-07-22T08:38:01;4.82;;;2.08;;
44578;SDS011;37422;51.402;0.016;2022-07-22T08:40:29;8.70;;;2.35;;
44578;SDS011;37422;51.402;0.016;2022-07-22T08:43:05;7.53;;;2.30;;
44578;SDS011;37422;51.402;0.016;2022-07-22T08:45:36;10.55;;;3.97;;
44578;SDS011;37422;51.402;0.016;2022-07-22T08:48:06;4.90;;;1.80;;
44578;SDS011;37422;51.402;0.016;2022-07-22T08:50:46;9.23;;;2.45;;
44578;SDS011;37422;51.402;0.016;2022-07-22T08:53:35;5.35;;;2.08;;
44578;SDS011;37422;51.402;0.016;2022-07-22T08:56:10;9.88;;;2.03;;
44578;SDS011;37422;51.402;0.016;2022-07-22T08:58:43;14.55;;;4.22;;
44578;SDS011;37422;51.402;0.016;2022-07-22T09:01:14;10.23;;;2.33;;
44578;SDS011;37422;51.402;0.016;2022-07-22T09:03:53;8.38;;;2.20;;
44578;SDS011;37422;51.402;0.016;2022-07-22T09:06:27;8.63;;;2.15;;
44578;SDS011;37422;51.402;0.016;2022-07-22T09:09:04;9.35;;;2.35;;
44578;SDS011;37422;51.402;0.016;2022-07-22T09:12:09;9.05;;;2.13;;
44578;SDS011;37422;51.402;0.016;2022-07-22T09:15:12;13.43;;;2.80;;
44578;SDS011;37422;51.402;0.016;2022-07-22T09:17:43;8.13;;;2.30;;
44578;SDS011;37422;51.402;0.016;2022-07-22T09:20:31;6.53;;;2.30;;
44578;SDS011;37422;51.402;0.016;2022-07-22T09:23:18;7.35;;;2.20;;
44578;SDS011;37422;51.402;0.016;2022-07-22T09:25:53;7.82;;;1.73;;
44578;SDS011;37422;51.402;0.016;2022-07-22T09:28:38;6.63;;;2.10;;
44578;SDS011;37422;51.402;0.016;2022-07-22T09:31:30;8.63;;;2.15;;
44578;SDS011;37422;51.402;0.016;2022-07-22T09:34:38;8.30;;;2.10;;
44578;SDS011;37422;51.402;0.016;2022-07-22T09:37:15;7.15;;;3.15;;
44578;SDS011;37422;51.402;0.016;2022-07-22T09:39:44;6.25;;;2.00;;
44578;SDS011;37422;51.402;0.016;2022-07-22T09:42:13;9.07;;;2.10;;
44578;SDS011;37422;51.402;0.016;2022-07-22T09:44:43;13.35;;;3.72;;
44578;SDS011;37422;51.402;0.016;2022-07-22T09:47:36;10.88;;;2.25;;
44578;SDS011;37422;51.402;0.016;2022-07-22T09:50:33;10.10;;;2.25;;
44578;SDS011;37422;51.402;0.016;2022-07-22T09:53:41;13.75;;;2.47;;
44578;SDS011;37422;51.402;0.016;2022-07-22T09:56:13;8.77;;;3.03;;
44578;SDS011;37422;51.402;0.016;2022-07-22T09:58:42;6.55;;;2.30;;
44578;SDS011;37422;51.402;0.016;2022-07-22T10:01:40;3.97;;;2.03;;
44578;SDS011;37422;51.402;0.016;2022-07-22T10:06:41;7.45;;;2.20;;
44578;SDS011;37422;51.402;0.016;2022-07-22T10:09:19;7.93;;;2.50;;
44578;SDS011;37422;51.402;0.016;2022-07-22T10:11:49;10.02;;;2.85;;
44578;SDS011;37422;51.402;0.016;2022-07-22T10:14:19;9.73;;;2.13;;
44578;SDS011;37422;51.402;0.016;2022-07-22T10:19:48;9.68;;;2.35;;
44578;SDS011;37422;51.402;0.016;2022-07-22T10:25:10;6.63;;;1.90;;
44578;SDS011;37422;51.402;0.016;2022-07-22T10:30:31;4.47;;;2.15;;
44578;SDS011;37422;51.402;0.016;2022-07-22T10:35:35;6.18;;;1.77;;
44578;SDS011;37422;51.402;0.016;2022-07-22T10:38:07;9.98;;;2.15;;
44578;SDS011;37422;51.402;0.016;2022-07-22T10:43:23;6.75;;;1.90;;
44578;SDS011;37422;51.402;0.016;2022-07-22T10:45:55;6.97;;;2.10;;
44578;SDS011;37422;51.402;0.016;2022-07-22T10:51:10;10.38;;;2.30;;
44578;SDS011;37422;51.402;0.016;2022-07-22T10:53:46;6.05;;;2.47;;
44578;SDS011;37422;51.402;0.016;2022-07-22T10:56:33;9.60;;;2.85;;
44578;SDS011;37422;51.402;0.016;2022-07-22T10:59:10;5.15;;;1.58;;
44578;SDS011;37422;51.402;0.016;2022-07-22T11:01:50;4.97;;;1.77;;
44578;SDS011;37422;51.402;0.016;2022-07-22T11:06:52;9.68;;;2.65;;
44578;SDS011;37422;51.402;0.016;2022-07-22T11:09:22;10.32;;;2.55;;
44578;SDS011;37422;51.402;0.016;2022-07-22T11:12:12;8.10;;;2.58;;
44578;SDS011;37422;51.402;0.016;2022-07-22T11:14:40;8.77;;;2.47;;
44578;SDS011;37422;51.402;0.016;2022-07-22T11:17:08;8.10;;;1.92;;
44578;SDS011;37422;51.402;0.016;2022-07-22T11:19:39;8.65;;;2.83;;
44578;SDS011;37422;51.402;0.016;2022-07-22T11:22:11;10.95;;;3.25;;
44578;SDS011;37422;51.402;0.016;2022-07-22T11:24:41;12.60;;;3.85;;
44578;SDS011;37422;51.402;0.016;2022-07-22T11:27:13;11.07;;;2.97;;
44578;SDS011;37422;51.402;0.016;2022-07-22T11:29:47;9.07;;;3.03;;
44578;SDS011;37422;51.402;0.016;2022-07-22T11:32:17;6.20;;;2.47;;
44578;SDS011;37422;51.402;0.016;2022-07-22T11:34:59;6.22;;;1.70;;
44578;SDS011;37422;51.402;0.016;2022-07-22T11:37:33;8.65;;;2.58;;
44578;SDS011;37422;51.402;0.016;2022-07-22T11:40:10;15.40;;;3.47;;
44578;SDS011;37422;51.402;0.016;2022-07-22T11:43:04;4.43;;;1.90;;
44578;SDS011;37422;51.402;0.016;2022-07-22T11:45:56;10.48;;;2.75;;
44578;SDS011;37422;51.402;0.016;2022-07-22T11:48:25;12.75;;;2.80;;
44578;SDS011;37422;51.402;0.016;2022-07-22T11:50:58;8.00;;;2.60;;
44578;SDS011;37422;51.402;0.016;2022-07-22T11:53:53;10.48;;;2.58;;
44578;SDS011;37422;51.402;0.016;2022-07-22T11:56:22;10.05;;;2.70;;
44578;SDS011;37422;51.402;0.016;2022-07-22T11:58:50;14.05;;;2.92;;
44578;SDS011;37422;51.402;0.016;2022-07-22T12:01:22;11.63;;;2.42;;
44578;SDS011;37422;51.402;0.016;2022-07-22T12:04:03;11.05;;;2.40;;
44578;SDS011;37422;51.402;0.016;2022-07-22T12:06:33;8.05;;;2.55;;
44578;SDS011;37422;51.402;0.016;2022-07-22T12:12:00;7.43;;;2.33;;
44578;SDS011;37422;51.402;0.016;2022-07-22T12:14:29;7.68;;;2.78;;
44578;SDS011;37422;51.402;0.016;2022-07-22T12:17:08;6.95;;;2.67;;
44578;SDS011;37422;51.402;0.016;2022-07-22T12:19:41;9.32;;;2.88;;
44578;SDS011;37422;51.402;0.016;2022-07-22T12:22:18;9.13;;;3.42;;
44578;SDS011;37422;51.402;0.016;2022-07-22T12:25:00;11.32;;;3.22;;
44578;SDS011;37422;51.402;0.016;2022-07-22T12:27:38;10.18;;;3.00;;
44578;SDS011;37422;51.402;0.016;2022-07-22T12:30:16;10.32;;;3.38;;
44578;SDS011;37422;51.402;0.016;2022-07-22T12:35:28;8.73;;;3.92;;
44578;SDS011;37422;51.402;0.016;2022-07-22T12:38:10;12.50;;;3.47;;
44578;SDS011;37422;51.402;0.016;2022-07-22T12:40:42;12.30;;;3.72;;
44578;SDS011;37422;51.402;0.016;2022-07-22T12:43:33;9.02;;;3.00;;
44578;SDS011;37422;51.402;0.016;2022-07-22T12:46:10;16.67;;;6.97;;
44578;SDS011;37422;51.402;0.016;2022-07-22T12:48:47;21.38;;;8.32;;
44578;SDS011;37422;51.402;0.016;2022-07-22T12:52:12;13.57;;;4.65;;
44578;SDS011;37422;51.402;0.016;2022-07-22T12:54:46;15.98;;;4.20;;
44578;SDS011;37422;51.402;0.016;2022-07-22T12:57:37;12.77;;;4.10;;
44578;SDS011;37422;51.402;0.016;2022-07-22T13:00:30;8.88;;;2.90;;
44578;SDS011;37422;51.402;0.016;2022-07-22T13:03:38;8.98;;;2.55;;
44578;SDS011;37422;51.402;0.016;2022-07-22T13:06:09;18.70;;;3.87;;
44578;SDS011;37422;51.402;0.016;2022-07-22T13:09:39;10.65;;;3.75;;
44578;SDS011;37422;51.402;0.016;2022-07-22T13:12:26;8.55;;;3.83;;
44578;SDS011;37422;51.402;0.016;2022-07-22T13:19:08;10.93;;;3.72;;
44578;SDS011;37422;51.402;0.016;2022-07-22T13:22:01;14.65;;;3.17;;
44578;SDS011;37422;51.402;0.016;2022-07-22T13:24:33;14.43;;;4.15;;
44578;SDS011;37422;51.402;0.016;2022-07-22T13:27:01;7.40;;;2.97;;
44578;SDS011;37422;51.402;0.016;2022-07-22T13:29:39;7.20;;;2.63;;
44578;SDS011;37422;51.402;0.016;2022-07-22T13:32:44;6.20;;;2.67;;
44578;SDS011;37422;51.402;0.016;2022-07-22T13:35:23;12.25;;;2.88;;
44578;SDS011;37422;51.402;0.016;2022-07-22T13:37:55;9.70;;;2.70;;
44578;SDS011;37422;51.402;0.016;2022-07-22T13:40:26;8.45;;;2.72;;
44578;SDS011;37422;51.402;0.016;2022-07-22T13:43:01;8.48;;;2.65;;
44578;SDS011;37422;51.402;0.016;2022-07-22T13:45:44;5.95;;;2.40;;
44578;SDS011;37422;51.402;0.016;2022-07-22T13:48:16;11.40;;;2.85;;
44578;SDS011;37422;51.402;0.016;2022-07-22T13:50:48;11.70;;;2.67;;
44578;SDS011;37422;51.402;0.016;2022-07-22T13:53:16;8.18;;;2.40;;
44578;SDS011;37422;51.402;0.016;2022-07-22T13:55:50;8.80;;;2.92;;
44578;SDS011;37422;51.402;0.016;2022-07-22T13:58:31;10.50;;;2.47;;
44578;SDS011;37422;51.402;0.016;2022-07-22T14:01:07;9.73;;;3.22;;
44578;SDS011;37422;51.402;0.016;2022-07-22T14:03:37;7.80;;;2.65;;
44578;SDS011;37422;51.402;0.016;2022-07-22T14:06:13;10.60;;;2.35;;
44578;SDS011;37422;51.402;0.016;2022-07-22T14:08:51;5.18;;;2.35;;
44578;SDS011;37422;51.402;0.016;2022-07-22T14:11:21;9.05;;;2.47;;
44578;SDS011;37422;51.402;0.016;2022-07-22T14:13:49;14.15;;;2.85;;
44578;SDS011;37422;51.402;0.016;2022-07-22T14:16:21;7.60;;;3.08;;
44578;SDS011;37422;51.402;0.016;2022-07-22T14:19:26;9.52;;;3.15;;
44578;SDS011;37422;51.402;0.016;2022-07-22T14:21:57;13.35;;;4.03;;
44578;SDS011;37422;51.402;0.016;2022-07-22T14:24:25;9.35;;;2.45;;
44578;SDS011;37422;51.402;0.016;2022-07-22T14:26:53;11.40;;;2.67;;
44578;SDS011;37422;51.402;0.016;2022-07-22T14:30:01;8.25;;;2.30;;
44578;SDS011;37422;51.402;0.016;2022-07-22T14:32:41;7.15;;;2.50;;
44578;SDS011;37422;51.402;0.016;2022-07-22T14:35:16;7.50;;;2.78;;
44578;SDS011;37422;51.402;0.016;2022-07-22T14:37:46;11.38;;;2.67;;
44578;SDS011;37422;51.402;0.016;2022-07-22T14:40:14;7.50;;;2.20;;
44578;SDS011;37422;51.402;0.016;2022-07-22T14:43:01;11.00;;;3.33;;
44578;SDS011;37422;51.402;0.016;2022-07-22T14:46:07;10.88;;;2.67;;
44578;SDS011;37422;51.402;0.016;2022-07-22T14:48:37;7.93;;;2.42;;
44578;SDS011;37422;51.402;0.016;2022-07-22T14:53:46;8.18;;;2.92;;
44578;SDS011;37422;51.402;0.016;2022-07-22T14:56:24;10.40;;;2.60;;
44578;SDS011;37422;51.402;0.016;2022-07-22T14:59:04;8.07;;;2.45;;
44578;SDS011;37422;51.402;0.016;2022-07-22T15:01:35;10.70;;;2.40;;
44578;SDS011;37422;51.402;0.016;2022-07-22T15:04:04;8.57;;;2.10;;
44578;SDS011;37422;51.402;0.016;2022-07-22T15:07:04;8.60;;;2.70;;
44578;SDS011;37422;51.402;0.016;2022-07-22T15:09:54;5.63;;;1.92;;
44578;SDS011;37422;51.402;0.016;2022-07-22T15:12:27;6.28;;;2.50;;
44578;SDS011;37422;51.402;0.016;2022-07-22T15:15:38;7.78;;;3.10;;
44578;SDS011;37422;51.402;0.016;2022-07-22T15:18:15;10.75;;;3.20;;
44578;SDS011;37422;51.402;0.016;2022-07-22T15:20:47;9.60;;;2.35;;
44578;SDS011;37422;51.402;0.016;2022-07-22T15:23:40;6.88;;;2.55;;
44578;SDS011;37422;51.402;0.016;2022-07-22T15:26:16;11.75;;;2.30;;
44578;SDS011;37422;51.402;0.016;2022-07-22T15:28:56;3.33;;;2.25;;
44578;SDS011;37422;51.402;0.016;2022-07-22T15:31:25;5.90;;;2.42;;
44578;SDS011;37422;51.402;0.016;2022-07-22T15:34:05;6.50;;;2.17;;
44578;SDS011;37422;51.402;0.016;2022-07-22T15:36:44;11.57;;;2.92;;
44578;SDS011;37422;51.402;0.016;2022-07-22T15:39:16;11.23;;;2.92;;
44578;SDS011;37422;51.402;0.016;2022-07-22T15:41:59;7.30;;;2.55;;
44578;SDS011;37422;51.402;0.016;2022-07-22T15:44:43;8.85;;;2.13;;
44578;SDS011;37422;51.402;0.016;2022-07-22T15:47:15;6.10;;;2.33;;
44578;SDS011;37422;51.402;0.016;2022-07-22T15:49:49;8.50;;;2.50;;
44578;SDS011;37422;51.402;0.016;2022-07-22T15:52:20;8.02;;;2.45;;
44578;SDS011;37422;51.402;0.016;2022-07-22T15:54:56;7.47;;;2.75;;
44578;SDS011;37422;51.402;0.016;2022-07-22T15:57:24;6.05;;;2.63;;
44578;SDS011;37422;51.402;0.016;2022-07-22T16:00:13;8.10;;;2.35;;
44578;SDS011;37422;51.402;0.016;2022-07-22T16:02:44;6.20;;;3.33;;
44578;SDS011;37422;51.402;0.016;2022-07-22T16:05:20;10.48;;;3.60;;
44578;SDS011;37422;51.402;0.016;2022-07-22T16:08:03;8.27;;;3.10;;
44578;SDS011;37422;51.402;0.016;2022-07-22T16:10:32;7.80;;;2.88;;
44578;SDS011;37422;51.402;0.016;2022-07-22T16:13:40;8.15;;;2.40;;
44578;SDS011;37422;51.402;0.016;2022-07-22T16:16:12;4.55;;;2.22;;